Latest Coastal Weather Observations for Portland Harbour

IDV60701

Issued at 3:45 am EST Friday 25 July 2014 (issued every 10 minutes, with the page automatically refreshed every 10 minutes)

About coastal observations | Map of coastal stations | Coastal observations for VIC | Marine services | Other Formats
Station Details ID: 090192 Name: PORTLAND NTC AWS Lat: -38.34 Lon: 141.61 Height: 0.0 m
Data from the previous 72 hours. | See also: Recent months for locations in Victoria
Date/Time
EST
Temp

°C
Wind Pressure Rain
since 9am
mm
Weather Cloud Vis
km
Sea
Height
m
Swell
Dir
 
Speed
knots
Gust
knots
hPa Trend Height
m
Period
s
Dir
25/03:30am 11.8 N 11 12 1009.4 - - - - - - - - -
25/03:00am 11.9 N 12 14 1009.4 - - - - - - - - -
25/02:30am 12.1 N 12 15 1009.2 - - - - - - - - -
25/02:00am 12.1 N 11 13 1009.2 - - - - - - - - -
25/01:30am 12.1 NNE 10 11 1009.1 - - - - - - - - -
25/01:00am 12.1 N 10 11 1009.1 - - - - - - - - -
25/12:30am 12.2 N 9 12 1009.2 - - - - - - - - -
25/12:00am 12.1 NNE 10 12 1009.3 - - - - - - - - -
 
Date/Time
EST
Temp

°C
Wind Pressure Rain
since 9am
mm
Weather Cloud Vis
km
Sea
Height
m
Swell
Dir
 
Speed
knots
Gust
knots
hPa Trend Height
m
Period
s
Dir
24/11:30pm 12.0 NNE 11 15 1009.5 - - - - - - - - -
24/11:00pm 11.9 NNE 11 14 1009.6 - - - - - - - - -
24/10:30pm 12.0 NNE 9 11 1009.6 - - - - - - - - -
24/10:00pm 12.2 NNE 11 13 1009.6 - - - - - - - - -
24/09:30pm 12.0 N 12 14 1009.7 - - - - - - - - -
24/09:00pm 12.2 NNE 12 16 1009.7 - - - - - - - - -
24/08:30pm 12.3 NNE 13 15 1009.7 - - - - - - - - -
24/08:00pm 12.2 NNE 11 12 1009.5 - - - - - - - - -
24/07:30pm 12.5 NE 16 20 1009.5 - - - - - - - - -
24/07:00pm 12.7 ENE 16 19 1009.2 - - - - - - - - -
24/06:30pm 12.9 ENE 16 19 1009.1 - - - - - - - - -
24/06:00pm 12.8 ENE 15 18 1008.9 - - - - - - - - -
24/05:30pm 12.6 NE 16 19 1008.9 - - - - - - - - -
24/05:00pm 12.9 ENE 19 22 1008.9 - - - - - - - - -
24/04:30pm 13.0 ENE 21 24 1008.5 - - - - - - - - -
24/04:00pm 12.7 E 20 24 1008.2 - - - - - - - - -
24/03:30pm 12.5 E 18 21 1008.4 - - - - - - - - -
24/03:00pm 12.3 E 16 19 1008.6 - - - - - - - - -
24/02:30pm 12.0 E 17 20 1008.7 - - - - - - - - -
24/02:00pm 11.6 E 15 18 1009.1 - - - - - - - - -
24/01:30pm 11.6 ENE 18 22 1009.7 - - - - - - - - -
24/01:00pm 11.5 ENE 17 20 1010.1 - - - - - - - - -
24/12:30pm 11.2 ENE 16 19 1010.8 - - - - - - - - -
24/12:00pm 11.4 ENE 15 18 1011.3 - - - - - - - - -
24/11:30am 11.0 ENE 16 19 1011.8 - - - - - - - - -
24/11:00am 10.6 ENE 16 19 1012.4 - - - - - - - - -
24/10:30am 10.6 ENE 15 18 1012.7 - - - - - - - - -
24/10:00am 10.9 NE 14 17 1013.0 - - - - - - - - -
24/09:30am 10.7 NE 14 16 1013.0 - - - - - - - - -
24/09:00am 10.8 NE 16 19 1012.9 - - - - - - - - -
24/08:30am 10.8 NE 17 20 1012.9 - - - - - - - - -
24/08:00am 10.6 NE 15 18 1012.9 - - - - - - - - -
24/07:30am 10.7 NE 15 18 1012.8 - - - - - - - - -
24/07:00am 11.0 NE 15 17 1012.8 - - - - - - - - -
24/06:30am 10.5 ENE 12 16 1012.7 - - - - - - - - -
24/06:00am 10.5 NE 11 13 1012.8 - - - - - - - - -
24/05:30am 10.6 NE 10 12 1013.0 - - - - - - - - -
24/05:00am 9.8 NE 4 6 1013.3 - - - - - - - - -
24/04:30am 10.0 NNE 5 8 1013.6 - - - - - - - - -
24/04:00am 10.2 NNE 6 8 1013.7 - - - - - - - - -
24/03:30am 10.1 ENE 9 11 1013.5 - - - - - - - - -
24/03:00am 10.0 NE 7 9 1013.8 - - - - - - - - -
24/02:30am 9.9 NE 8 11 1014.3 - - - - - - - - -
24/02:00am 10.0 NE 6 8 1014.5 - - - - - - - - -
24/01:30am 9.9 NE 6 8 1014.7 - - - - - - - - -
24/01:00am 10.1 NNE 6 8 1015.1 - - - - - - - - -
24/12:30am 9.9 NE 9 10 1015.2 - - - - - - - - -
24/12:00am 10.3 NE 7 9 1015.4 - - - - - - - - -
 
Date/Time
EST
Temp

°C
Wind Pressure Rain
since 9am
mm
Weather Cloud Vis
km
Sea
Height
m
Swell
Dir
 
Speed
knots
Gust
knots
hPa Trend Height
m
Period
s
Dir
23/11:30pm 10.3 NE 9 11 1015.6 - - - - - - - - -
23/11:00pm 10.4 ENE 7 9 1015.7 - - - - - - - - -
23/10:30pm 10.7 NE 9 10 1016.0 - - - - - - - - -
23/10:00pm 10.4 NE 9 11 1016.3 - - - - - - - - -
23/09:30pm 10.6 NE 8 10 1016.6 - - - - - - - - -
23/09:00pm 10.7 NE 8 10 1017.0 - - - - - - - - -
23/08:30pm 10.6 NNE 9 10 1017.2 - - - - - - - - -
23/08:00pm 10.8 NNE 10 13 1017.2 - - - - - - - - -
23/07:30pm 11.1 NNE 12 14 1017.2 - - - - - - - - -
23/07:00pm 11.2 NNE 10 12 1017.2 - - - - - - - - -
23/06:30pm 11.2 NNE 11 13 1017.3 - - - - - - - - -
23/06:00pm 11.6 NNE 10 11 1017.3 - - - - - - - - -
23/05:30pm 11.3 NNE 8 10 1017.4 - - - - - - - - -
23/05:00pm 11.3 NNE 8 10 1017.7 - - - - - - - - -
23/04:30pm 11.1 N 7 9 1017.8 - - - - - - - - -
23/04:00pm 11.0 N 8 10 1017.7 - - - - - - - - -
23/03:30pm 11.2 N 10 12 1017.8 - - - - - - - - -
23/03:00pm 11.3 N 10 11 1017.9 - - - - - - - - -
23/02:30pm 11.1 NNE 6 10 1017.8 - - - - - - - - -
23/02:00pm 10.9 N 7 9 1018.3 - - - - - - - - -
23/01:30pm 10.4 N 6 8 1018.7 - - - - - - - - -
23/01:00pm 10.1 NE 4 6 1019.0 - - - - - - - - -
23/12:30pm 9.8 N 7 9 1019.7 - - - - - - - - -
23/12:00pm 9.3 NNE 3 5 1020.3 - - - - - - - - -
23/11:30am 8.9 N 4 6 1021.1 - - - - - - - - -
23/11:00am 8.4 N 5 6 1021.4 - - - - - - - - -
23/10:30am 7.2 SSW 1 2 1021.6 - - - - - - - - -
23/10:00am 6.8 NNW 1 3 1021.9 - - - - - - - - -
23/09:30am 6.9 N 5 7 1022.5 - - - - - - - - -
23/09:00am 4.7 W 3 4 1022.3 - - - - - - - - -
23/08:30am 4.0 SW 3 4 1022.1 - - - - - - - - -
23/08:00am 4.9 W 3 4 1022.2 - - - - - - - - -
23/07:30am 3.5 W 4 5 1022.1 - - - - - - - - -
23/07:00am 3.5 WSW 4 5 1022.1 - - - - - - - - -
23/06:30am 3.4 WSW 4 5 1022.2 - - - - - - - - -
23/06:00am 3.2 WSW 4 5 1022.2 - - - - - - - - -
23/05:30am 3.4 W 4 6 1022.3 - - - - - - - - -
23/05:00am 4.4 W 3 5 1022.1 - - - - - - - - -
23/04:30am 3.5 W 5 6 1022.3 - - - - - - - - -
23/04:00am 3.7 SW 3 4 1022.0 - - - - - - - - -
23/03:30am 4.0 SW 3 3 1022.1 - - - - - - - - -
23/03:00am 4.3 SW 3 4 1022.5 - - - - - - - - -
23/02:30am 4.3 SSW 4 5 1022.8 - - - - - - - - -
23/02:00am 4.6 SW 2 3 1022.9 - - - - - - - - -
23/01:30am 4.5 WSW 3 5 1022.9 - - - - - - - - -
23/01:00am 5.0 WSW 2 3 1023.0 - - - - - - - - -
23/12:30am 5.2 SSW 3 4 1023.1 - - - - - - - - -
23/12:00am 5.3 SSW 3 3 1023.7 - - - - - - - - -
 
Date/Time
EST
Temp

°C
Wind Pressure Rain
since 9am
mm
Weather Cloud Vis
km
Sea
Height
m
Swell
Dir
 
Speed
knots
Gust
knots
hPa Trend Height
m
Period
s
Dir
22/11:30pm 5.9 SW 2 3 1024.0 - - - - - - - - -
22/11:00pm 6.1 SW 3 4 1024.3 - - - - - - - - -
22/10:30pm 6.1 WSW 2 3 1024.3 - - - - - - - - -
22/10:00pm 6.7 SSW 2 4 1024.3 - - - - - - - - -
22/09:30pm 7.0 WSW 2 3 1023.8 - - - - - - - - -
22/09:00pm 6.9 SSW 2 2 1023.6 - - - - - - - - -
22/08:30pm 7.9 SW 2 3 1023.8 - - - - - - - - -
22/08:00pm 9.4 W 2 4 1023.8 - - - - - - - - -
22/07:30pm 12.5 ENE 5 7 1023.8 - - - - - - - - -
22/07:00pm 12.4 E 6 7 1023.8 - - - - - - - - -
22/06:30pm 12.3 E 5 6 1023.7 - - - - - - - - -
22/06:00pm 12.3 E 4 6 1023.6 - - - - - - - - -
22/05:30pm 12.2 E 5 7 1023.4 - - - - - - - - -
22/05:00pm 12.3 E 4 6 1023.4 - - - - - - - - -
22/04:30pm 12.3 E 5 7 1023.5 - - - - - - - - -
22/04:00pm 11.9 E 5 7 1023.4 - - - - - - - - -
22/03:30pm 11.8 E 5 6 1023.6 - - - - - - - - -
22/03:00pm 11.7 E 4 6 1023.5 - - - - - - - - -
22/02:30pm 11.5 E 4 5 1023.6 - - - - - - - - -
22/02:00pm 11.4 ENE 3 4 1023.7 - - - - - - - - -
22/01:30pm 11.1 ENE 3 4 1024.0 - - - - - - - - -
22/01:00pm 11.2 NE 3 4 1024.6 - - - - - - - - -
22/12:30pm 10.6 NNE 3 4 1025.0 - - - - - - - - -
22/12:00pm 9.5 NNE 3 4 1025.5 - - - - - - - - -
22/11:30am 8.3 N 4 6 1025.9 - - - - - - - - -
22/11:00am 8.0 NNE 4 6 1026.2 - - - - - - - - -
22/10:30am 7.9 N 4 6 1026.2 - - - - - - - - -
22/10:00am 7.4 NNW 2 4 1026.3 - - - - - - - - -
22/09:30am 6.0 WNW 1 3 1026.2 - - - - - - - - -
22/09:00am 5.4 WNW 2 3 1026.1 - - - - - - - - -
22/08:30am 4.9 W 2 2 1025.8 - - - - - - - - -
22/08:00am 4.3 W 1 2 1025.6 - - - - - - - - -
22/07:30am 4.0 W 2 3 1025.5 - - - - - - - - -
22/07:00am 4.4 WNW 3 4 1025.2 - - - - - - - - -
22/06:30am 4.0 W 4 5 1024.9 - - - - - - - - -
22/06:00am 4.3 WNW 3 4 1024.6 - - - - - - - - -
22/05:30am 4.1 W 3 4 1024.6 - - - - - - - - -
22/05:00am 3.8 W 4 6 1024.5 - - - - - - - - -
22/04:30am 3.7 W 3 4 1024.3 - - - - - - - - -
22/04:00am 4.6 W 3 4 1024.2 - - - - - - - - -

Other Formats:

Comma delimited format used in spreadsheet applications
http://www.bom.gov.au/fwo/IDV60701/IDV60701.95826.axf

JavaScript Object Notation format (JSON) in row-major order
http://www.bom.gov.au/fwo/IDV60701/IDV60701.95826.json